Time,TemperatureF,DewpointF,PressureIn,WindDirection,WindDirectionDegrees,WindSpeedMPH,WindSpeedGustMPH,Humidity,HourlyPrecipIn,Conditions,Clouds,dailyrainin,SoftwareType,DateUTC
2013-08-13 00:13:00,66.0,65.0,29.85,West,278,0.0,4.0,95,0.02,,,0.02,,2013-08-13 04:13:00,
2013-08-13 00:23:00,65.0,64.0,29.85,West,278,0.0,0.0,95,0.01,,,0.02,,2013-08-13 04:23:00,
2013-08-13 00:42:00,65.0,64.0,29.85,West,278,0.0,2.0,96,0.00,,,0.02,,2013-08-13 04:42:00,
2013-08-13 00:53:00,65.0,64.0,29.85,West,278,0.0,1.0,96,0.00,,,0.02,,2013-08-13 04:53:00,
2013-08-13 01:12:00,65.0,64.0,29.85,West,278,0.0,0.0,97,0.00,,,0.02,,2013-08-13 05:12:00,
2013-08-13 01:21:00,64.0,63.0,29.85,WNW,295,0.0,1.0,97,0.00,,,0.02,,2013-08-13 05:21:00,
2013-08-13 01:52:00,64.0,63.0,29.86,WNW,295,0.0,0.0,97,0.00,,,0.02,,2013-08-13 05:52:00,
2013-08-13 02:11:00,64.0,63.0,29.86,WNW,295,0.0,0.0,97,0.00,,,0.02,,2013-08-13 06:11:00,
2013-08-13 02:21:00,64.0,63.0,29.86,WNW,295,0.0,0.0,97,0.00,,,0.02,,2013-08-13 06:21:00,
2013-08-13 02:42:00,64.0,63.0,29.86,WNW,295,0.0,0.0,98,0.00,,,0.02,,2013-08-13 06:42:00,
2013-08-13 02:52:00,64.0,63.0,29.86,WNW,295,0.0,0.0,98,0.00,,,0.02,,2013-08-13 06:52:00,
2013-08-13 03:12:00,63.0,62.0,29.85,WNW,295,0.0,0.0,98,0.00,,,0.02,,2013-08-13 07:12:00,
2013-08-13 03:21:00,63.0,62.0,29.85,WNW,295,0.0,1.0,98,0.00,,,0.02,,2013-08-13 07:21:00,
2013-08-13 03:42:00,63.0,62.0,29.85,WNW,294,0.0,2.0,98,0.00,,,0.02,,2013-08-13 07:42:00,
2013-08-13 03:52:00,63.0,62.0,29.85,West,281,0.0,3.0,98,0.00,,,0.02,,2013-08-13 07:52:00,
2013-08-13 04:11:00,63.0,62.0,29.85,West,281,0.0,1.0,98,0.00,,,0.02,,2013-08-13 08:11:00,
2013-08-13 04:22:00,63.0,62.0,29.85,West,281,0.0,1.0,98,0.00,,,0.02,,2013-08-13 08:22:00,
2013-08-13 04:42:00,63.0,62.0,29.86,West,281,0.0,1.0,98,0.00,,,0.02,,2013-08-13 08:42:00,
2013-08-13 04:52:00,62.0,61.0,29.86,West,281,0.0,0.0,98,0.00,,,0.02,,2013-08-13 08:52:00,
2013-08-13 05:11:00,62.0,61.0,29.87,WNW,302,0.0,4.0,98,0.00,,,0.02,,2013-08-13 09:11:00,
2013-08-13 05:22:00,62.0,61.0,29.87,WNW,283,0.0,4.0,98,0.00,,,0.02,,2013-08-13 09:22:00,
2013-08-13 05:43:00,61.0,60.0,29.88,NNE,13,0.0,3.0,98,0.00,,,0.02,,2013-08-13 09:43:00,
2013-08-13 05:54:00,61.0,60.0,29.88,North,360,0.0,6.0,98,0.00,,,0.02,,2013-08-13 09:54:00,
2013-08-13 06:12:00,61.0,60.0,29.89,NNW,327,0.0,2.0,98,0.00,,,0.02,,2013-08-13 10:12:00,
2013-08-13 06:23:00,60.0,59.0,29.89,North,355,0.0,3.0,98,0.00,,,0.02,,2013-08-13 10:23:00,
2013-08-13 06:42:00,60.0,59.0,29.90,West,263,0.0,4.0,98,0.00,,,0.02,,2013-08-13 10:42:00,
2013-08-13 06:53:00,60.0,59.0,29.91,NNW,347,0.0,6.0,98,0.00,,,0.02,,2013-08-13 10:53:00,
2013-08-13 07:11:00,60.0,59.0,29.91,West,277,0.0,3.0,98,0.00,,,0.02,,2013-08-13 11:11:00,
2013-08-13 07:22:00,59.0,58.0,29.92,WNW,290,0.0,1.0,98,0.00,,,0.02,,2013-08-13 11:22:00,
2013-08-13 07:42:00,59.0,58.0,29.92,NNW,339,0.0,3.0,98,0.00,,,0.02,,2013-08-13 11:42:00,
2013-08-13 07:52:00,59.0,58.0,29.93,NNW,342,0.0,3.0,98,0.00,,,0.02,,2013-08-13 11:52:00,
2013-08-13 08:12:00,59.0,58.0,29.93,WNW,298,1.0,4.0,98,0.00,,,0.02,,2013-08-13 12:12:00,
2013-08-13 08:21:00,59.0,58.0,29.93,North,349,0.0,5.0,97,0.00,,,0.02,,2013-08-13 12:21:00,
2013-08-13 08:42:00,59.0,58.0,29.93,NNE,24,2.0,9.0,96,0.00,,,0.02,,2013-08-13 12:42:00,
2013-08-13 08:52:00,60.0,58.0,29.94,NNE,13,1.0,8.0,94,0.00,,,0.02,,2013-08-13 12:52:00,
2013-08-13 09:11:00,61.0,58.0,29.95,NW,326,3.0,11.0,90,0.00,,,0.02,,2013-08-13 13:11:00,
2013-08-13 09:22:00,62.0,58.0,29.97,WNW,290,2.0,9.0,88,0.00,,,0.02,,2013-08-13 13:22:00,
2013-08-13 09:42:00,61.0,57.0,29.97,West,264,2.0,7.0,87,0.00,,,0.02,,2013-08-13 13:42:00,
2013-08-13 09:52:00,61.0,56.0,29.97,WNW,296,3.0,9.0,84,0.00,,,0.02,,2013-08-13 13:52:00,
2013-08-13 10:11:00,61.0,55.0,29.96,North,5,3.0,10.0,81,0.00,,,0.02,,2013-08-13 14:11:00,
2013-08-13 10:22:00,62.0,56.0,29.96,WNW,296,1.0,10.0,80,0.00,,,0.02,,2013-08-13 14:22:00,
2013-08-13 10:42:00,63.0,56.0,29.96,NNW,342,5.0,9.0,77,0.00,,,0.02,,2013-08-13 14:42:00,
2013-08-13 10:52:00,63.0,56.0,29.98,East,101,2.0,9.0,77,0.00,,,0.02,,2013-08-13 14:52:00,
2013-08-13 11:11:00,64.0,57.0,29.98,West,278,2.0,7.0,78,0.00,,,0.02,,2013-08-13 15:11:00,
2013-08-13 11:22:00,64.0,56.0,29.98,NW,306,3.0,10.0,75,0.00,,,0.02,,2013-08-13 15:22:00,
2013-08-13 11:44:00,65.0,56.0,29.98,West,273,2.0,10.0,73,0.00,,,0.02,,2013-08-13 15:44:00,
2013-08-13 11:54:00,66.0,56.0,29.98,WNW,288,4.0,13.0,70,0.00,,,0.02,,2013-08-13 15:54:00,
2013-08-13 12:13:00,66.0,56.0,29.98,West,275,2.0,10.0,71,0.00,,,0.02,,2013-08-13 16:13:00,
2013-08-13 12:23:00,67.0,56.0,29.99,WSW,257,3.0,9.0,68,0.00,,,0.02,,2013-08-13 16:23:00,
2013-08-13 12:54:00,68.0,55.0,29.99,NNW,336,2.0,8.0,63,0.00,,,0.02,,2013-08-13 16:54:00,
2013-08-13 13:16:00,68.0,55.0,29.99,SW,225,3.0,9.0,63,0.00,,,0.02,,2013-08-13 17:16:00,
2013-08-13 13:27:00,68.0,54.0,29.99,NNE,12,2.0,8.0,60,0.00,,,0.02,,2013-08-13 17:27:00,
2013-08-13 13:46:00,-999.0,-99.9,29.99,NNW,329,5.0,12.0,-999,0.00,,,0.02,,2013-08-13 17:46:00,
2013-08-13 13:56:00,69.0,56.0,29.99,NW,314,3.0,13.0,63,0.00,,,0.02,,2013-08-13 17:56:00,
2013-08-13 14:15:00,69.0,55.0,29.99,WNW,292,3.0,13.0,60,0.00,,,0.02,,2013-08-13 18:15:00,
2013-08-13 14:25:00,69.0,55.0,29.99,WNW,292,3.0,13.0,60,0.00,,,0.02,,2013-08-13 18:25:00,
2013-08-13 14:44:00,69.0,53.0,29.99,North,9,3.0,7.0,57,0.00,,,0.02,,2013-08-13 18:44:00,
2013-08-13 14:56:00,69.0,54.0,29.99,WSW,251,3.0,9.0,58,0.00,,,0.02,,2013-08-13 18:56:00,
2013-08-13 15:14:00,70.0,54.0,29.99,NW,325,3.0,12.0,57,0.00,,,0.02,,2013-08-13 19:14:00,
2013-08-13 15:25:00,70.0,52.0,29.99,WNW,286,3.0,14.0,52,0.00,,,0.02,,2013-08-13 19:25:00,
2013-08-13 15:44:00,70.0,55.0,30.00,NW,319,3.0,10.0,58,0.00,,,0.02,,2013-08-13 19:44:00,
2013-08-13 15:55:00,69.0,52.0,30.00,WNW,292,3.0,12.0,55,0.00,,,0.02,,2013-08-13 19:55:00,
2013-08-13 16:15:00,69.0,53.0,30.00,NW,309,4.0,13.0,57,0.00,,,0.02,,2013-08-13 20:15:00,
2013-08-13 16:22:00,69.0,54.0,30.00,NNE,30,3.0,13.0,59,0.00,,,0.02,,2013-08-13 20:22:00,
2013-08-13 16:53:00,69.0,52.0,30.01,NNE,19,4.0,8.0,55,0.00,,,0.02,,2013-08-13 20:53:00,
2013-08-13 17:11:00,69.0,54.0,30.01,WNW,292,4.0,13.0,59,0.00,,,0.02,,2013-08-13 21:11:00,
2013-08-13 17:24:00,69.0,54.0,30.01,WNW,294,2.0,12.0,59,0.00,,,0.02,,2013-08-13 21:24:00,
2013-08-13 17:46:00,68.0,51.0,30.01,NNE,28,3.0,11.0,55,0.00,,,0.02,,2013-08-13 21:46:00,
2013-08-13 17:54:00,68.0,54.0,30.01,WNW,296,2.0,9.0,60,0.00,,,0.02,,2013-08-13 21:54:00,
2013-08-13 18:13:00,67.0,54.0,30.01,NE,44,2.0,8.0,62,0.00,,,0.02,,2013-08-13 22:13:00,
2013-08-13 18:23:00,66.0,53.0,30.01,NW,307,0.0,8.0,62,0.00,,,0.02,,2013-08-13 22:23:00,
2013-08-13 18:50:00,65.0,53.0,30.01,NW,324,1.0,7.0,64,0.00,,,0.02,,2013-08-13 22:50:00,
2013-08-13 18:57:00,65.0,53.0,30.01,WNW,302,0.0,7.0,65,0.00,,,0.02,,2013-08-13 22:57:00,
2013-08-13 19:13:00,65.0,52.0,30.01,West,267,1.0,9.0,62,0.00,,,0.02,,2013-08-13 23:13:00,
2013-08-13 19:26:00,64.0,52.0,30.01,WNW,289,2.0,9.0,65,0.00,,,0.02,,2013-08-13 23:26:00,
2013-08-13 19:47:00,64.0,51.0,30.01,WNW,284,1.0,8.0,63,0.00,,,0.02,,2013-08-13 23:47:00,
2013-08-13 19:57:00,64.0,52.0,30.01,West,277,0.0,5.0,66,0.00,,,0.02,,2013-08-13 23:57:00,
2013-08-13 20:11:00,63.0,52.0,30.01,WNW,291,0.0,4.0,68,0.00,,,0.02,,2013-08-14 00:11:00,
2013-08-13 20:22:00,62.0,51.0,30.01,WNW,291,0.0,3.0,68,0.00,,,0.02,,2013-08-14 00:22:00,
2013-08-13 20:42:00,62.0,53.0,30.02,WNW,291,0.0,0.0,72,0.00,,,0.02,,2013-08-14 00:42:00,
2013-08-13 20:52:00,61.0,53.0,30.02,WNW,291,0.0,0.0,76,0.00,,,0.02,,2013-08-14 00:52:00,
2013-08-13 21:11:00,60.0,53.0,30.02,WNW,291,0.0,1.0,79,0.00,,,0.02,,2013-08-14 01:11:00,
2013-08-13 21:21:00,59.0,53.0,30.03,WNW,291,0.0,0.0,80,0.00,,,0.02,,2013-08-14 01:21:00,
2013-08-13 21:42:00,58.0,52.0,30.03,WNW,291,0.0,0.0,81,0.00,,,0.02,,2013-08-14 01:42:00,
2013-08-13 21:52:00,57.0,52.0,30.04,WNW,291,0.0,0.0,83,0.00,,,0.02,,2013-08-14 01:52:00,
2013-08-13 22:11:00,57.0,52.0,30.04,WNW,291,0.0,0.0,84,0.00,,,0.02,,2013-08-14 02:11:00,
2013-08-13 22:22:00,57.0,53.0,30.04,WNW,291,0.0,0.0,85,0.00,,,0.02,,2013-08-14 02:22:00,
2013-08-13 22:42:00,57.0,52.0,30.05,WNW,291,0.0,0.0,84,0.00,,,0.02,,2013-08-14 02:42:00,
2013-08-13 22:52:00,56.0,51.0,30.05,WNW,291,0.0,0.0,84,0.00,,,0.02,,2013-08-14 02:52:00,
2013-08-13 23:11:00,56.0,52.0,30.06,WNW,291,0.0,0.0,86,0.00,,,0.02,,2013-08-14 03:11:00,
2013-08-13 23:22:00,55.0,51.0,30.06,WNW,291,0.0,0.0,87,0.00,,,0.01,,2013-08-14 03:22:00,
2013-08-13 23:43:00,55.0,52.0,30.06,WNW,291,0.0,1.0,88,0.00,,,0.01,,2013-08-14 03:43:00,
2013-08-13 23:53:00,55.0,52.0,30.07,WNW,291,0.0,0.0,89,0.00,,,0.01,,2013-08-14 03:53:00,